sensor_id;sensor_type;location;lat;lon;timestamp;temperature;humidity
78779;DHT22;68121;52.404;5.318;2023-11-19T00:01:23;13.50;80.50
78779;DHT22;68121;52.404;5.318;2023-11-19T00:03:49;13.50;80.50
78779;DHT22;68121;52.404;5.318;2023-11-19T00:06:15;13.50;80.40
78779;DHT22;68121;52.404;5.318;2023-11-19T00:08:42;13.50;80.40
78779;DHT22;68121;52.404;5.318;2023-11-19T00:11:11;13.50;80.50
78779;DHT22;68121;52.404;5.318;2023-11-19T00:13:41;13.50;80.40
78779;DHT22;68121;52.404;5.318;2023-11-19T00:16:07;13.50;80.40
78779;DHT22;68121;52.404;5.318;2023-11-19T00:18:35;13.50;80.30
78779;DHT22;68121;52.404;5.318;2023-11-19T00:21:04;13.50;80.40
78779;DHT22;68121;52.404;5.318;2023-11-19T00:23:30;13.50;80.30
78779;DHT22;68121;52.404;5.318;2023-11-19T00:25:56;13.50;80.30
78779;DHT22;68121;52.404;5.318;2023-11-19T00:28:23;13.50;80.20
78779;DHT22;68121;52.404;5.318;2023-11-19T00:30:49;13.50;80.10
78779;DHT22;68121;52.404;5.318;2023-11-19T00:33:16;13.50;80.20
78779;DHT22;68121;52.404;5.318;2023-11-19T00:35:42;13.50;80.10
78779;DHT22;68121;52.404;5.318;2023-11-19T00:38:08;13.50;80.10
78779;DHT22;68121;52.404;5.318;2023-11-19T00:40:34;13.50;80.10
78779;DHT22;68121;52.404;5.318;2023-11-19T00:43:00;13.50;80.00
78779;DHT22;68121;52.404;5.318;2023-11-19T00:45:26;13.50;80.00
78779;DHT22;68121;52.404;5.318;2023-11-19T00:47:52;13.40;80.00
78779;DHT22;68121;52.404;5.318;2023-11-19T00:50:20;13.40;80.00
78779;DHT22;68121;52.404;5.318;2023-11-19T00:52:46;13.30;80.00
78779;DHT22;68121;52.404;5.318;2023-11-19T00:55:13;13.30;80.00
78779;DHT22;68121;52.404;5.318;2023-11-19T00:57:39;13.30;80.00
78779;DHT22;68121;52.404;5.318;2023-11-19T01:00:06;13.30;80.00
78779;DHT22;68121;52.404;5.318;2023-11-19T01:02:45;13.30;80.00
78779;DHT22;68121;52.404;5.318;2023-11-19T01:05:11;13.30;80.00
78779;DHT22;68121;52.404;5.318;2023-11-19T01:07:39;13.30;80.00
78779;DHT22;68121;52.404;5.318;2023-11-19T01:10:06;13.20;80.00
78779;DHT22;68121;52.404;5.318;2023-11-19T01:12:34;13.20;80.00
78779;DHT22;68121;52.404;5.318;2023-11-19T01:15:00;13.20;80.00
78779;DHT22;68121;52.404;5.318;2023-11-19T01:17:26;13.20;80.00
78779;DHT22;68121;52.404;5.318;2023-11-19T01:19:52;13.20;80.00
78779;DHT22;68121;52.404;5.318;2023-11-19T01:22:18;13.20;80.00
78779;DHT22;68121;52.404;5.318;2023-11-19T01:24:44;13.20;80.00
78779;DHT22;68121;52.404;5.318;2023-11-19T01:27:10;13.10;79.90
78779;DHT22;68121;52.404;5.318;2023-11-19T01:29:36;13.10;79.90
78779;DHT22;68121;52.404;5.318;2023-11-19T01:32:04;13.10;79.90
78779;DHT22;68121;52.404;5.318;2023-11-19T01:34:30;13.10;79.90
78779;DHT22;68121;52.404;5.318;2023-11-19T01:36:56;13.10;79.80
78779;DHT22;68121;52.404;5.318;2023-11-19T01:39:22;13.10;79.90
78779;DHT22;68121;52.404;5.318;2023-11-19T01:41:48;13.10;79.90
78779;DHT22;68121;52.404;5.318;2023-11-19T01:44:14;13.10;79.90
78779;DHT22;68121;52.404;5.318;2023-11-19T01:46:42;13.10;79.90
78779;DHT22;68121;52.404;5.318;2023-11-19T01:49:08;13.10;79.80
78779;DHT22;68121;52.404;5.318;2023-11-19T01:51:35;13.10;79.80
78779;DHT22;68121;52.404;5.318;2023-11-19T01:54:01;13.10;79.90
78779;DHT22;68121;52.404;5.318;2023-11-19T01:56:27;13.10;79.80
78779;DHT22;68121;52.404;5.318;2023-11-19T01:58:54;13.10;79.90
78779;DHT22;68121;52.404;5.318;2023-11-19T02:01:21;13.10;79.90
78779;DHT22;68121;52.404;5.318;2023-11-19T02:03:48;13.10;79.80
78779;DHT22;68121;52.404;5.318;2023-11-19T02:06:14;13.10;79.80
78779;DHT22;68121;52.404;5.318;2023-11-19T02:08:41;13.10;79.80
78779;DHT22;68121;52.404;5.318;2023-11-19T02:11:08;13.10;79.80
78779;DHT22;68121;52.404;5.318;2023-11-19T02:13:34;13.10;79.70
78779;DHT22;68121;52.404;5.318;2023-11-19T02:16:03;13.10;79.70
78779;DHT22;68121;52.404;5.318;2023-11-19T02:18:31;13.10;79.70
78779;DHT22;68121;52.404;5.318;2023-11-19T02:20:57;13.00;79.70
78779;DHT22;68121;52.404;5.318;2023-11-19T02:23:25;13.00;79.70
78779;DHT22;68121;52.404;5.318;2023-11-19T02:28:36;13.00;79.60
78779;DHT22;68121;52.404;5.318;2023-11-19T02:31:03;13.00;79.60
78779;DHT22;68121;52.404;5.318;2023-11-19T02:33:38;13.00;79.70
78779;DHT22;68121;52.404;5.318;2023-11-19T02:36:05;12.90;79.60
78779;DHT22;68121;52.404;5.318;2023-11-19T02:38:33;12.90;79.60
78779;DHT22;68121;52.404;5.318;2023-11-19T02:41:03;12.90;79.50
78779;DHT22;68121;52.404;5.318;2023-11-19T02:43:31;12.90;79.50
78779;DHT22;68121;52.404;5.318;2023-11-19T02:46:05;12.90;79.50
78779;DHT22;68121;52.404;5.318;2023-11-19T02:48:35;12.90;79.50
78779;DHT22;68121;52.404;5.318;2023-11-19T02:51:04;12.90;79.40
78779;DHT22;68121;52.404;5.318;2023-11-19T02:53:31;12.90;79.30
78779;DHT22;68121;52.404;5.318;2023-11-19T02:55:57;12.90;79.30
78779;DHT22;68121;52.404;5.318;2023-11-19T02:58:32;12.90;79.30
78779;DHT22;68121;52.404;5.318;2023-11-19T03:00:58;12.90;79.20
78779;DHT22;68121;52.404;5.318;2023-11-19T03:03:25;12.80;79.20
78779;DHT22;68121;52.404;5.318;2023-11-19T03:06:07;12.80;79.20
78779;DHT22;68121;52.404;5.318;2023-11-19T03:08:36;12.80;79.10
78779;DHT22;68121;52.404;5.318;2023-11-19T03:11:02;12.80;79.10
78779;DHT22;68121;52.404;5.318;2023-11-19T03:13:28;12.80;79.10
78779;DHT22;68121;52.404;5.318;2023-11-19T03:15:54;12.80;79.00
78779;DHT22;68121;52.404;5.318;2023-11-19T03:18:20;12.80;79.00
78779;DHT22;68121;52.404;5.318;2023-11-19T03:20:47;12.80;79.00
78779;DHT22;68121;52.404;5.318;2023-11-19T03:23:13;12.70;78.90
78779;DHT22;68121;52.404;5.318;2023-11-19T03:25:39;12.70;78.90
78779;DHT22;68121;52.404;5.318;2023-11-19T03:28:05;12.70;78.90
78779;DHT22;68121;52.404;5.318;2023-11-19T03:30:32;12.70;78.80
78779;DHT22;68121;52.404;5.318;2023-11-19T03:32:58;12.60;78.90
78779;DHT22;68121;52.404;5.318;2023-11-19T03:35:25;12.60;78.80
78779;DHT22;68121;52.404;5.318;2023-11-19T03:37:51;12.60;78.70
78779;DHT22;68121;52.404;5.318;2023-11-19T03:40:18;12.50;78.70
78779;DHT22;68121;52.404;5.318;2023-11-19T03:42:45;12.50;78.70
78779;DHT22;68121;52.404;5.318;2023-11-19T03:45:12;12.50;78.70
78779;DHT22;68121;52.404;5.318;2023-11-19T03:47:38;12.50;78.70
78779;DHT22;68121;52.404;5.318;2023-11-19T03:50:05;12.50;78.70
78779;DHT22;68121;52.404;5.318;2023-11-19T03:52:31;12.50;78.70
78779;DHT22;68121;52.404;5.318;2023-11-19T03:54:57;12.50;78.70
78779;DHT22;68121;52.404;5.318;2023-11-19T03:57:24;12.50;78.60
78779;DHT22;68121;52.404;5.318;2023-11-19T03:59:50;12.50;78.50
78779;DHT22;68121;52.404;5.318;2023-11-19T04:02:16;12.50;78.40
78779;DHT22;68121;52.404;5.318;2023-11-19T04:04:42;12.50;78.40
78779;DHT22;68121;52.404;5.318;2023-11-19T04:07:08;12.50;78.30
78779;DHT22;68121;52.404;5.318;2023-11-19T04:09:35;12.50;78.20
78779;DHT22;68121;52.404;5.318;2023-11-19T04:12:03;12.50;78.20
78779;DHT22;68121;52.404;5.318;2023-11-19T04:14:29;12.50;78.20
78779;DHT22;68121;52.404;5.318;2023-11-19T04:16:55;12.50;78.10
78779;DHT22;68121;52.404;5.318;2023-11-19T04:19:21;12.50;78.00
78779;DHT22;68121;52.404;5.318;2023-11-19T04:21:47;12.50;78.00
78779;DHT22;68121;52.404;5.318;2023-11-19T04:24:16;12.50;77.90
78779;DHT22;68121;52.404;5.318;2023-11-19T04:26:45;12.50;77.90
78779;DHT22;68121;52.404;5.318;2023-11-19T04:29:13;12.50;77.80
78779;DHT22;68121;52.404;5.318;2023-11-19T04:31:41;12.50;77.80
78779;DHT22;68121;52.404;5.318;2023-11-19T04:34:07;12.50;77.80
78779;DHT22;68121;52.404;5.318;2023-11-19T04:36:34;12.50;77.60
78779;DHT22;68121;52.404;5.318;2023-11-19T04:39:00;12.50;77.70
78779;DHT22;68121;52.404;5.318;2023-11-19T04:41:27;12.50;77.60
78779;DHT22;68121;52.404;5.318;2023-11-19T04:43:54;12.50;77.50
78779;DHT22;68121;52.404;5.318;2023-11-19T04:46:20;12.50;77.60
78779;DHT22;68121;52.404;5.318;2023-11-19T04:48:46;12.50;77.50
78779;DHT22;68121;52.404;5.318;2023-11-19T04:51:12;12.50;77.50
78779;DHT22;68121;52.404;5.318;2023-11-19T04:53:38;12.40;77.50
78779;DHT22;68121;52.404;5.318;2023-11-19T04:56:08;12.40;77.50
78779;DHT22;68121;52.404;5.318;2023-11-19T04:58:35;12.40;77.50
78779;DHT22;68121;52.404;5.318;2023-11-19T05:01:01;12.40;77.40
78779;DHT22;68121;52.404;5.318;2023-11-19T05:03:29;12.30;77.40
78779;DHT22;68121;52.404;5.318;2023-11-19T05:05:55;12.40;77.40
78779;DHT22;68121;52.404;5.318;2023-11-19T05:08:21;12.30;77.30
78779;DHT22;68121;52.404;5.318;2023-11-19T05:10:47;12.30;77.30
78779;DHT22;68121;52.404;5.318;2023-11-19T05:13:13;12.30;77.20
78779;DHT22;68121;52.404;5.318;2023-11-19T05:15:39;12.40;77.20
78779;DHT22;68121;52.404;5.318;2023-11-19T05:18:05;12.40;77.20
78779;DHT22;68121;52.404;5.318;2023-11-19T05:20:31;12.40;77.10
78779;DHT22;68121;52.404;5.318;2023-11-19T05:22:57;12.40;77.10
78779;DHT22;68121;52.404;5.318;2023-11-19T05:25:26;12.50;77.00
78779;DHT22;68121;52.404;5.318;2023-11-19T05:27:53;12.40;77.00
78779;DHT22;68121;52.404;5.318;2023-11-19T05:30:19;12.50;76.90
78779;DHT22;68121;52.404;5.318;2023-11-19T05:32:45;12.50;76.90
78779;DHT22;68121;52.404;5.318;2023-11-19T05:35:12;12.40;76.90
78779;DHT22;68121;52.404;5.318;2023-11-19T05:37:38;12.50;76.70
78779;DHT22;68121;52.404;5.318;2023-11-19T05:40:05;12.50;76.60
78779;DHT22;68121;52.404;5.318;2023-11-19T05:42:38;12.50;76.60
78779;DHT22;68121;52.404;5.318;2023-11-19T05:45:04;12.50;76.50
78779;DHT22;68121;52.404;5.318;2023-11-19T05:47:30;12.50;76.40
78779;DHT22;68121;52.404;5.318;2023-11-19T05:49:56;12.50;76.40
78779;DHT22;68121;52.404;5.318;2023-11-19T05:52:22;12.50;76.40
78779;DHT22;68121;52.404;5.318;2023-11-19T05:54:49;12.50;76.20
78779;DHT22;68121;52.404;5.318;2023-11-19T05:57:17;12.50;76.20
78779;DHT22;68121;52.404;5.318;2023-11-19T05:59:49;12.50;76.20
78779;DHT22;68121;52.404;5.318;2023-11-19T06:02:15;12.40;76.10
78779;DHT22;68121;52.404;5.318;2023-11-19T06:04:42;12.30;76.10
78779;DHT22;68121;52.404;5.318;2023-11-19T06:07:10;12.30;76.10
78779;DHT22;68121;52.404;5.318;2023-11-19T06:09:36;12.30;76.00
78779;DHT22;68121;52.404;5.318;2023-11-19T06:12:02;12.30;76.00
78779;DHT22;68121;52.404;5.318;2023-11-19T06:14:29;12.30;75.90
78779;DHT22;68121;52.404;5.318;2023-11-19T06:16:55;12.30;75.90
78779;DHT22;68121;52.404;5.318;2023-11-19T06:19:21;12.30;75.80
78779;DHT22;68121;52.404;5.318;2023-11-19T06:21:47;12.30;75.80
78779;DHT22;68121;52.404;5.318;2023-11-19T06:24:14;12.30;75.70
78779;DHT22;68121;52.404;5.318;2023-11-19T06:26:40;12.30;75.70
78779;DHT22;68121;52.404;5.318;2023-11-19T06:29:06;12.30;75.70
78779;DHT22;68121;52.404;5.318;2023-11-19T06:31:32;12.30;75.60
78779;DHT22;68121;52.404;5.318;2023-11-19T06:33:58;12.30;75.50
78779;DHT22;68121;52.404;5.318;2023-11-19T06:36:24;12.30;75.50
78779;DHT22;68121;52.404;5.318;2023-11-19T06:38:52;12.30;75.40
78779;DHT22;68121;52.404;5.318;2023-11-19T06:41:18;12.20;75.40
78779;DHT22;68121;52.404;5.318;2023-11-19T06:43:44;12.20;75.40
78779;DHT22;68121;52.404;5.318;2023-11-19T06:46:17;12.20;75.40
78779;DHT22;68121;52.404;5.318;2023-11-19T06:48:43;12.20;75.40
78779;DHT22;68121;52.404;5.318;2023-11-19T06:51:10;12.20;75.30
78779;DHT22;68121;52.404;5.318;2023-11-19T06:53:37;12.20;75.30
78779;DHT22;68121;52.404;5.318;2023-11-19T06:56:03;12.20;75.30
78779;DHT22;68121;52.404;5.318;2023-11-19T06:58:35;12.20;75.30
78779;DHT22;68121;52.404;5.318;2023-11-19T07:01:01;12.20;75.30
78779;DHT22;68121;52.404;5.318;2023-11-19T07:03:27;12.20;75.30
78779;DHT22;68121;52.404;5.318;2023-11-19T07:05:53;12.20;75.20
78779;DHT22;68121;52.404;5.318;2023-11-19T07:08:21;12.20;75.20
78779;DHT22;68121;52.404;5.318;2023-11-19T07:10:47;12.20;75.20
78779;DHT22;68121;52.404;5.318;2023-11-19T07:13:13;12.20;75.20
78779;DHT22;68121;52.404;5.318;2023-11-19T07:15:39;12.20;75.20
78779;DHT22;68121;52.404;5.318;2023-11-19T07:18:05;12.20;75.20
78779;DHT22;68121;52.404;5.318;2023-11-19T07:20:31;12.20;75.20
78779;DHT22;68121;52.404;5.318;2023-11-19T07:22:58;12.20;75.10
78779;DHT22;68121;52.404;5.318;2023-11-19T07:25:24;12.20;75.20
78779;DHT22;68121;52.404;5.318;2023-11-19T07:27:51;12.20;75.10
78779;DHT22;68121;52.404;5.318;2023-11-19T07:30:18;12.20;75.00
78779;DHT22;68121;52.404;5.318;2023-11-19T07:32:44;12.20;75.00
78779;DHT22;68121;52.404;5.318;2023-11-19T07:35:10;12.20;75.00
78779;DHT22;68121;52.404;5.318;2023-11-19T07:37:36;12.20;75.00
78779;DHT22;68121;52.404;5.318;2023-11-19T07:40:02;12.20;74.90
78779;DHT22;68121;52.404;5.318;2023-11-19T07:42:29;12.30;74.90
78779;DHT22;68121;52.404;5.318;2023-11-19T07:44:55;12.30;74.90
78779;DHT22;68121;52.404;5.318;2023-11-19T07:47:22;12.30;74.80
78779;DHT22;68121;52.404;5.318;2023-11-19T07:49:50;12.30;74.80
78779;DHT22;68121;52.404;5.318;2023-11-19T07:52:16;12.30;74.80
78779;DHT22;68121;52.404;5.318;2023-11-19T07:54:42;12.30;74.80
78779;DHT22;68121;52.404;5.318;2023-11-19T07:57:08;12.30;74.80
78779;DHT22;68121;52.404;5.318;2023-11-19T07:59:34;12.30;74.80
78779;DHT22;68121;52.404;5.318;2023-11-19T08:02:00;12.30;74.90
78779;DHT22;68121;52.404;5.318;2023-11-19T08:04:26;12.30;74.90
78779;DHT22;68121;52.404;5.318;2023-11-19T08:06:52;12.30;75.00
78779;DHT22;68121;52.404;5.318;2023-11-19T08:09:18;12.30;75.00
78779;DHT22;68121;52.404;5.318;2023-11-19T08:11:44;12.30;75.00
78779;DHT22;68121;52.404;5.318;2023-11-19T08:14:11;12.30;75.00
78779;DHT22;68121;52.404;5.318;2023-11-19T08:16:39;12.30;75.10
78779;DHT22;68121;52.404;5.318;2023-11-19T08:19:05;12.50;75.00
78779;DHT22;68121;52.404;5.318;2023-11-19T08:21:31;12.50;74.80
78779;DHT22;68121;52.404;5.318;2023-11-19T08:23:58;12.60;74.60
78779;DHT22;68121;52.404;5.318;2023-11-19T08:26:24;12.70;74.40
78779;DHT22;68121;52.404;5.318;2023-11-19T08:28:50;12.80;74.30
78779;DHT22;68121;52.404;5.318;2023-11-19T08:31:17;12.90;74.10
78779;DHT22;68121;52.404;5.318;2023-11-19T08:33:43;13.00;73.80
78779;DHT22;68121;52.404;5.318;2023-11-19T08:36:15;13.10;73.70
78779;DHT22;68121;52.404;5.318;2023-11-19T08:38:42;13.10;73.60
78779;DHT22;68121;52.404;5.318;2023-11-19T08:41:08;13.30;73.40
78779;DHT22;68121;52.404;5.318;2023-11-19T08:43:34;13.30;73.30
78779;DHT22;68121;52.404;5.318;2023-11-19T08:46:00;13.30;73.20
78779;DHT22;68121;52.404;5.318;2023-11-19T08:48:26;13.50;73.00
78779;DHT22;68121;52.404;5.318;2023-11-19T08:50:52;13.50;72.90
78779;DHT22;68121;52.404;5.318;2023-11-19T08:53:18;13.50;72.80
78779;DHT22;68121;52.404;5.318;2023-11-19T08:55:44;13.50;72.70
78779;DHT22;68121;52.404;5.318;2023-11-19T08:58:10;13.40;72.70
78779;DHT22;68121;52.404;5.318;2023-11-19T09:00:36;13.40;72.90
78779;DHT22;68121;52.404;5.318;2023-11-19T09:03:03;13.40;72.90
78779;DHT22;68121;52.404;5.318;2023-11-19T09:05:29;13.40;72.90
78779;DHT22;68121;52.404;5.318;2023-11-19T09:07:55;13.40;72.90
78779;DHT22;68121;52.404;5.318;2023-11-19T09:10:21;13.50;72.90
78779;DHT22;68121;52.404;5.318;2023-11-19T09:12:47;13.50;72.70
78779;DHT22;68121;52.404;5.318;2023-11-19T09:15:13;13.50;72.70
78779;DHT22;68121;52.404;5.318;2023-11-19T09:17:39;13.40;72.70
78779;DHT22;68121;52.404;5.318;2023-11-19T09:20:06;13.30;72.80
78779;DHT22;68121;52.404;5.318;2023-11-19T09:22:34;13.30;73.00
78779;DHT22;68121;52.404;5.318;2023-11-19T09:25:00;13.20;73.00
78779;DHT22;68121;52.404;5.318;2023-11-19T09:27:26;13.10;73.10
78779;DHT22;68121;52.404;5.318;2023-11-19T09:29:52;13.10;73.20
78779;DHT22;68121;52.404;5.318;2023-11-19T09:32:23;13.10;73.20
78779;DHT22;68121;52.404;5.318;2023-11-19T09:34:49;13.10;73.30
78779;DHT22;68121;52.404;5.318;2023-11-19T09:37:15;13.10;73.40
78779;DHT22;68121;52.404;5.318;2023-11-19T09:39:41;13.10;73.40
78779;DHT22;68121;52.404;5.318;2023-11-19T09:42:09;13.10;73.30
78779;DHT22;68121;52.404;5.318;2023-11-19T09:44:37;13.10;73.30
78779;DHT22;68121;52.404;5.318;2023-11-19T09:47:05;13.10;73.20
78779;DHT22;68121;52.404;5.318;2023-11-19T09:49:33;13.10;73.20
78779;DHT22;68121;52.404;5.318;2023-11-19T09:52:01;13.10;73.10
78779;DHT22;68121;52.404;5.318;2023-11-19T09:54:28;13.20;73.20
78779;DHT22;68121;52.404;5.318;2023-11-19T09:56:57;13.20;73.10
78779;DHT22;68121;52.404;5.318;2023-11-19T09:59:30;13.20;73.00
78779;DHT22;68121;52.404;5.318;2023-11-19T10:01:57;13.20;73.10
78779;DHT22;68121;52.404;5.318;2023-11-19T10:04:23;13.20;73.00
78779;DHT22;68121;52.404;5.318;2023-11-19T10:06:51;13.20;73.00
78779;DHT22;68121;52.404;5.318;2023-11-19T10:09:18;13.20;73.10
78779;DHT22;68121;52.404;5.318;2023-11-19T10:11:44;13.20;73.00
78779;DHT22;68121;52.404;5.318;2023-11-19T10:14:11;13.20;73.00
78779;DHT22;68121;52.404;5.318;2023-11-19T10:16:38;13.20;73.00
78779;DHT22;68121;52.404;5.318;2023-11-19T10:19:04;13.20;73.00
78779;DHT22;68121;52.404;5.318;2023-11-19T10:21:32;13.20;73.00
78779;DHT22;68121;52.404;5.318;2023-11-19T10:23:59;13.20;73.00
78779;DHT22;68121;52.404;5.318;2023-11-19T10:26:27;13.10;73.00
78779;DHT22;68121;52.404;5.318;2023-11-19T10:28:53;13.20;72.90
78779;DHT22;68121;52.404;5.318;2023-11-19T10:31:21;13.20;73.00
78779;DHT22;68121;52.404;5.318;2023-11-19T10:33:52;13.20;72.90
78779;DHT22;68121;52.404;5.318;2023-11-19T10:36:18;13.30;73.00
78779;DHT22;68121;52.404;5.318;2023-11-19T10:38:52;13.30;72.80
78779;DHT22;68121;52.404;5.318;2023-11-19T10:41:32;13.30;72.70
78779;DHT22;68121;52.404;5.318;2023-11-19T10:43:58;13.30;72.60
78779;DHT22;68121;52.404;5.318;2023-11-19T10:46:41;13.30;72.60
78779;DHT22;68121;52.404;5.318;2023-11-19T10:49:08;13.40;72.50
78779;DHT22;68121;52.404;5.318;2023-11-19T10:51:34;13.30;72.60
78779;DHT22;68121;52.404;5.318;2023-11-19T10:54:05;13.30;72.50
78779;DHT22;68121;52.404;5.318;2023-11-19T10:56:32;13.30;72.50
78779;DHT22;68121;52.404;5.318;2023-11-19T10:59:00;13.30;72.50
78779;DHT22;68121;52.404;5.318;2023-11-19T11:01:31;13.30;72.50
78779;DHT22;68121;52.404;5.318;2023-11-19T11:04:00;13.30;72.50
78779;DHT22;68121;52.404;5.318;2023-11-19T11:06:27;13.40;72.50
78779;DHT22;68121;52.404;5.318;2023-11-19T11:08:54;13.50;72.50
78779;DHT22;68121;52.404;5.318;2023-11-19T11:11:21;13.60;72.20
78779;DHT22;68121;52.404;5.318;2023-11-19T11:13:50;13.70;72.00
78779;DHT22;68121;52.404;5.318;2023-11-19T11:16:19;13.70;71.90
78779;DHT22;68121;52.404;5.318;2023-11-19T11:18:49;13.70;71.70
78779;DHT22;68121;52.404;5.318;2023-11-19T11:21:20;13.70;71.70
78779;DHT22;68121;52.404;5.318;2023-11-19T11:31:31;13.60;71.60
78779;DHT22;68121;52.404;5.318;2023-11-19T11:39:22;13.70;71.50
78779;DHT22;68121;52.404;5.318;2023-11-19T11:45:16;13.90;71.20
78779;DHT22;68121;52.404;5.318;2023-11-19T11:50:18;14.10;70.70
78779;DHT22;68121;52.404;5.318;2023-11-19T11:57:52;14.10;70.50
78779;DHT22;68121;52.404;5.318;2023-11-19T12:00:38;14.10;70.40
78779;DHT22;68121;52.404;5.318;2023-11-19T12:03:05;14.10;70.30
78779;DHT22;68121;52.404;5.318;2023-11-19T12:05:33;14.00;70.30
78779;DHT22;68121;52.404;5.318;2023-11-19T12:08:06;14.00;70.40
78779;DHT22;68121;52.404;5.318;2023-11-19T12:10:51;14.00;70.40
78779;DHT22;68121;52.404;5.318;2023-11-19T12:13:18;14.00;70.10
78779;DHT22;68121;52.404;5.318;2023-11-19T12:18:31;13.90;70.10
78779;DHT22;68121;52.404;5.318;2023-11-19T12:20:59;13.90;70.10
78779;DHT22;68121;52.404;5.318;2023-11-19T12:23:29;13.90;70.10
78779;DHT22;68121;52.404;5.318;2023-11-19T12:25:56;13.90;70.10
78779;DHT22;68121;52.404;5.318;2023-11-19T12:28:22;13.90;70.10
78779;DHT22;68121;52.404;5.318;2023-11-19T12:30:50;13.90;69.90
78779;DHT22;68121;52.404;5.318;2023-11-19T12:33:17;13.90;69.90
78779;DHT22;68121;52.404;5.318;2023-11-19T12:35:44;13.90;69.90
78779;DHT22;68121;52.404;5.318;2023-11-19T12:38:25;13.90;69.90
78779;DHT22;68121;52.404;5.318;2023-11-19T12:41:06;13.90;69.80
78779;DHT22;68121;52.404;5.318;2023-11-19T12:43:33;13.90;69.80
78779;DHT22;68121;52.404;5.318;2023-11-19T12:46:22;13.90;69.80
78779;DHT22;68121;52.404;5.318;2023-11-19T12:48:49;13.90;69.70
78779;DHT22;68121;52.404;5.318;2023-11-19T12:51:15;13.80;69.80
78779;DHT22;68121;52.404;5.318;2023-11-19T12:53:51;13.80;69.90
78779;DHT22;68121;52.404;5.318;2023-11-19T12:56:21;13.80;69.90
78779;DHT22;68121;52.404;5.318;2023-11-19T12:58:47;13.70;69.90
78779;DHT22;68121;52.404;5.318;2023-11-19T13:01:20;13.70;70.00
78779;DHT22;68121;52.404;5.318;2023-11-19T13:03:47;13.70;69.90
78779;DHT22;68121;52.404;5.318;2023-11-19T13:06:14;13.70;69.90
78779;DHT22;68121;52.404;5.318;2023-11-19T13:08:46;13.70;69.90
78779;DHT22;68121;52.404;5.318;2023-11-19T13:11:14;13.70;69.90
78779;DHT22;68121;52.404;5.318;2023-11-19T13:13:55;13.70;69.90
78779;DHT22;68121;52.404;5.318;2023-11-19T13:16:21;13.70;69.80
78779;DHT22;68121;52.404;5.318;2023-11-19T13:18:47;13.70;69.90
78779;DHT22;68121;52.404;5.318;2023-11-19T13:21:13;13.70;69.90
78779;DHT22;68121;52.404;5.318;2023-11-19T13:23:39;13.60;69.80
78779;DHT22;68121;52.404;5.318;2023-11-19T13:26:06;13.70;69.90
78779;DHT22;68121;52.404;5.318;2023-11-19T13:28:32;13.60;69.80
78779;DHT22;68121;52.404;5.318;2023-11-19T13:30:58;13.60;69.80
78779;DHT22;68121;52.404;5.318;2023-11-19T13:33:24;13.60;69.80
78779;DHT22;68121;52.404;5.318;2023-11-19T13:35:50;13.60;69.70
78779;DHT22;68121;52.404;5.318;2023-11-19T13:38:16;13.60;69.70
78779;DHT22;68121;52.404;5.318;2023-11-19T13:40:42;13.60;69.70
78779;DHT22;68121;52.404;5.318;2023-11-19T13:43:08;13.60;69.70
78779;DHT22;68121;52.404;5.318;2023-11-19T13:45:34;13.50;69.90
78779;DHT22;68121;52.404;5.318;2023-11-19T13:48:00;13.40;70.30
78779;DHT22;68121;52.404;5.318;2023-11-19T13:50:27;13.30;70.50
78779;DHT22;68121;52.404;5.318;2023-11-19T13:52:54;13.30;70.80
78779;DHT22;68121;52.404;5.318;2023-11-19T13:55:20;13.20;71.00
78779;DHT22;68121;52.404;5.318;2023-11-19T13:57:48;13.30;71.10
78779;DHT22;68121;52.404;5.318;2023-11-19T14:00:14;13.30;71.20
78779;DHT22;68121;52.404;5.318;2023-11-19T14:02:47;13.30;71.20
78779;DHT22;68121;52.404;5.318;2023-11-19T14:05:14;13.30;71.20
78779;DHT22;68121;52.404;5.318;2023-11-19T14:07:41;13.30;71.20
78779;DHT22;68121;52.404;5.318;2023-11-19T14:10:08;13.30;71.20
78779;DHT22;68121;52.404;5.318;2023-11-19T14:12:37;13.30;71.20
78779;DHT22;68121;52.404;5.318;2023-11-19T14:15:08;13.30;71.20
78779;DHT22;68121;52.404;5.318;2023-11-19T14:17:43;13.30;71.20
78779;DHT22;68121;52.404;5.318;2023-11-19T14:20:09;13.30;71.20
78779;DHT22;68121;52.404;5.318;2023-11-19T14:22:44;13.30;71.20
78779;DHT22;68121;52.404;5.318;2023-11-19T14:25:10;13.30;71.20
78779;DHT22;68121;52.404;5.318;2023-11-19T14:27:38;13.40;71.20
78779;DHT22;68121;52.404;5.318;2023-11-19T14:30:09;13.30;71.20
78779;DHT22;68121;52.404;5.318;2023-11-19T14:32:40;13.30;71.20
78779;DHT22;68121;52.404;5.318;2023-11-19T14:35:07;13.30;71.20
78779;DHT22;68121;52.404;5.318;2023-11-19T14:37:34;13.30;71.20
78779;DHT22;68121;52.404;5.318;2023-11-19T14:40:00;13.30;71.10
78779;DHT22;68121;52.404;5.318;2023-11-19T14:42:28;13.30;71.10
78779;DHT22;68121;52.404;5.318;2023-11-19T14:44:54;13.30;71.10
78779;DHT22;68121;52.404;5.318;2023-11-19T14:47:21;13.30;71.10
78779;DHT22;68121;52.404;5.318;2023-11-19T14:49:47;13.30;71.00
78779;DHT22;68121;52.404;5.318;2023-11-19T14:52:14;13.30;71.00
78779;DHT22;68121;52.404;5.318;2023-11-19T14:54:40;13.30;71.00
78779;DHT22;68121;52.404;5.318;2023-11-19T14:57:07;13.40;70.90
78779;DHT22;68121;52.404;5.318;2023-11-19T14:59:36;13.30;70.90
78779;DHT22;68121;52.404;5.318;2023-11-19T15:02:03;13.30;70.90
78779;DHT22;68121;52.404;5.318;2023-11-19T15:04:29;13.30;70.90
78779;DHT22;68121;52.404;5.318;2023-11-19T15:06:59;13.30;71.10
78779;DHT22;68121;52.404;5.318;2023-11-19T15:09:25;13.30;71.20
78779;DHT22;68121;52.404;5.318;2023-11-19T15:11:54;13.20;71.20
78779;DHT22;68121;52.404;5.318;2023-11-19T15:14:20;13.20;71.30
78779;DHT22;68121;52.404;5.318;2023-11-19T15:16:47;13.10;71.30
78779;DHT22;68121;52.404;5.318;2023-11-19T15:19:13;13.10;71.40
78779;DHT22;68121;52.404;5.318;2023-11-19T15:21:40;13.10;71.50
78779;DHT22;68121;52.404;5.318;2023-11-19T15:24:08;13.10;71.50
78779;DHT22;68121;52.404;5.318;2023-11-19T15:26:35;13.10;71.50
78779;DHT22;68121;52.404;5.318;2023-11-19T15:29:04;13.10;71.60
78779;DHT22;68121;52.404;5.318;2023-11-19T15:31:31;13.10;71.60
78779;DHT22;68121;52.404;5.318;2023-11-19T15:33:57;13.10;71.60
78779;DHT22;68121;52.404;5.318;2023-11-19T15:36:24;13.10;71.60
78779;DHT22;68121;52.404;5.318;2023-11-19T15:38:50;13.10;71.60
78779;DHT22;68121;52.404;5.318;2023-11-19T15:41:16;13.10;71.60
78779;DHT22;68121;52.404;5.318;2023-11-19T15:43:42;13.10;71.60
78779;DHT22;68121;52.404;5.318;2023-11-19T15:46:09;13.10;71.60
78779;DHT22;68121;52.404;5.318;2023-11-19T15:48:36;13.10;71.50
78779;DHT22;68121;52.404;5.318;2023-11-19T15:51:03;13.10;71.50
78779;DHT22;68121;52.404;5.318;2023-11-19T15:53:30;13.10;71.50
78779;DHT22;68121;52.404;5.318;2023-11-19T15:55:59;13.10;71.50
78779;DHT22;68121;52.404;5.318;2023-11-19T15:58:25;13.10;71.50
78779;DHT22;68121;52.404;5.318;2023-11-19T16:00:51;13.10;71.50